Time;durP1;ratioP1;P1;durP2;ratioP2;P2;SDS_P1;SDS_P2;PMS_P1;PMS_P2;Temp;Humidity;BMP_temperature;BMP_pressure;BME280_temperature;BME280_humidity;BME280_pressure;Samples;Min_cycle;Max_cycle;Signal;HPM_P1;HPM_P2
2022/10/09 00:01:43;;;;;;;6.80;3.90;;;;;;;12.62;66.79;99728.95;24470;1341;3027816;-68
2022/10/09 00:04:12;;;;;;;10.70;4.80;;;;;;;12.59;67.03;99726.99;24533;1339;3052201;-67
2022/10/09 00:06:42;;;;;;;9.00;4.50;;;;;;;12.57;67.01;99725.55;24446;1325;3026367;-70
2022/10/09 00:09:13;;;;;;;8.90;4.20;;;;;;;12.58;66.85;99723.89;24500;1326;3026436;-67
2022/10/09 00:11:42;;;;;;;7.60;4.20;;;;;;;12.60;66.74;99719.02;24517;1335;3054718;-65
2022/10/09 00:14:13;;;;;;;11.60;4.70;;;;;;;12.55;67.10;99712.48;24517;1341;3028248;-64
2022/10/09 00:16:45;;;;;;;7.80;4.40;;;;;;;12.54;67.23;99709.04;24502;1333;3027674;-67
2022/10/09 00:19:14;;;;;;;10.90;4.10;;;;;;;12.52;67.03;99707.95;24540;1333;3029878;-68
2022/10/09 00:21:43;;;;;;;6.40;3.90;;;;;;;12.50;67.25;99707.71;24453;1333;3052866;-68
2022/10/09 00:24:12;;;;;;;8.20;4.00;;;;;;;12.50;66.88;99706.70;24544;1325;3029216;-69
2022/10/09 00:26:41;;;;;;;9.00;4.40;;;;;;;12.48;67.32;99705.90;24507;1333;3052802;-70
2022/10/09 00:29:13;;;;;;;8.30;4.20;;;;;;;12.46;67.06;99698.70;24489;1340;3026955;-69
2022/10/09 00:31:42;;;;;;;8.20;4.20;;;;;;;12.45;67.55;99699.12;24513;1333;3029032;-69
2022/10/09 00:34:11;;;;;;;10.70;4.20;;;;;;;12.44;67.41;99694.95;24490;1326;3029145;-70
2022/10/09 00:36:40;;;;;;;9.70;3.80;;;;;;;12.47;67.28;99698.45;24479;1331;3053927;-66
2022/10/09 00:39:09;;;;;;;7.30;4.20;;;;;;;12.50;66.76;99696.34;24506;1334;3026096;-66
2022/10/09 00:41:39;;;;;;;8.50;4.50;;;;;;;12.53;66.56;99693.65;24499;1329;3053519;-69
2022/10/09 00:44:46;;;;;;;7.30;4.20;;;;;;;12.54;66.63;99694.29;24439;1334;3028255;-70
2022/10/09 00:47:21;;;;;;;7.20;4.30;;;;;;;12.49;67.10;99692.53;24490;1326;3051547;-64
2022/10/09 00:49:51;;;;;;;13.30;5.30;;;;;;;12.46;67.05;99693.09;24472;1329;3028087;-66
2022/10/09 00:52:21;;;;;;;7.80;4.80;;;;;;;12.39;67.64;99695.05;24592;1333;3026532;-67
2022/10/09 00:54:50;;;;;;;8.10;5.10;;;;;;;12.37;67.39;99692.73;24533;1330;3030283;-67
2022/10/09 00:57:19;;;;;;;6.70;4.30;;;;;;;12.37;67.66;99691.20;24548;1329;3029358;-65
2022/10/09 00:59:48;;;;;;;7.30;4.10;;;;;;;12.36;67.45;99689.81;24469;1333;3049825;-63
2022/10/09 01:02:17;;;;;;;9.70;4.80;;;;;;;12.34;67.81;99688.53;24437;1334;3029177;-66
2022/10/09 01:04:46;;;;;;;10.20;5.20;;;;;;;12.34;67.60;99683.27;24523;1333;3028780;-66
2022/10/09 01:07:26;;;;;;;10.30;4.60;;;;;;;12.31;67.79;99682.41;24487;1333;3049639;-66
2022/10/09 01:10:34;;;;;;;10.30;4.50;;;;;;;12.29;67.72;99684.29;24552;1326;3069506;-67
2022/10/09 01:13:03;;;;;;;8.00;4.20;;;;;;;12.25;67.94;99680.69;24508;1326;3049840;-69
2022/10/09 01:15:43;;;;;;;8.50;4.30;;;;;;;12.24;67.82;99676.66;24447;1333;3028355;-68
2022/10/09 01:18:21;;;;;;;10.00;4.40;;;;;;;12.30;67.34;99681.77;24483;1323;3054481;-68
2022/10/09 01:20:54;;;;;;;8.50;4.40;;;;;;;12.26;67.89;99680.45;24460;1340;3053183;-65
2022/10/09 01:23:32;;;;;;;8.10;4.20;;;;;;;12.24;67.91;99676.73;24559;1329;3026653;-68
2022/10/09 01:26:10;;;;;;;8.80;4.90;;;;;;;12.22;67.90;99677.39;24549;1329;3053062;-67
2022/10/09 01:28:49;;;;;;;8.90;4.40;;;;;;;12.18;68.19;99675.16;24566;1334;3050723;-67
2022/10/09 01:31:18;;;;;;;7.80;3.90;;;;;;;12.19;67.64;99679.83;24564;1332;3070231;-66
2022/10/09 01:33:47;;;;;;;6.30;3.70;;;;;;;12.18;67.79;99686.04;24505;1332;3028442;-64
2022/10/09 01:36:16;;;;;;;8.70;4.30;;;;;;;12.17;67.72;99690.14;24449;1335;3049353;-67
2022/10/09 01:38:45;;;;;;;9.70;4.40;;;;;;;12.17;68.02;99689.09;24403;1326;3028913;-65
2022/10/09 01:41:15;;;;;;;9.40;4.30;;;;;;;12.17;67.78;99686.11;24478;1332;3025823;-66
2022/10/09 01:43:44;;;;;;;6.30;4.00;;;;;;;12.14;68.11;99686.83;24498;1339;3049395;-63
2022/10/09 01:46:29;;;;;;;7.30;4.30;;;;;;;12.12;68.13;99684.17;24445;1335;3029854;-66
2022/10/09 01:49:01;;;;;;;7.70;3.90;;;;;;;12.12;67.95;99687.13;24498;1333;3049576;-66
2022/10/09 01:51:38;;;;;;;8.20;4.30;;;;;;;12.10;68.17;99681.64;24525;1327;3026406;-66
2022/10/09 01:54:07;;;;;;;4.20;2.20;;;;;;;12.09;68.25;99687.30;24491;1331;3052514;-66
2022/10/09 01:56:37;;;;;;;6.60;3.00;;;;;;;12.69;67.42;99685.05;24451;1343;3028812;-66
2022/10/09 01:59:10;;;;;;;8.40;3.50;;;;;;;13.26;65.53;99675.80;24507;1327;3026996;-65
2022/10/09 02:01:41;;;;;;;6.80;3.40;;;;;;;13.39;65.17;99673.20;24482;1340;3026649;-67
2022/10/09 02:04:10;;;;;;;7.00;4.40;;;;;;;13.34;65.21;99672.11;24447;1335;3027081;-65
2022/10/09 02:06:40;;;;;;;6.60;3.50;;;;;;;13.19;65.37;99671.54;24468;1331;3027476;-66
2022/10/09 02:09:12;;;;;;;7.10;3.70;;;;;;;13.03;65.68;99672.59;24472;1336;3028066;-65
2022/10/09 02:11:46;;;;;;;6.60;3.70;;;;;;;12.94;65.65;99673.17;24462;1332;3051167;-67
2022/10/09 02:14:15;;;;;;;5.90;3.70;;;;;;;12.83;65.52;99670.42;24529;1329;3026566;-67
2022/10/09 02:16:46;;;;;;;6.80;3.80;;;;;;;12.75;65.79;99665.33;24469;1329;3026975;-70
2022/10/09 02:19:16;;;;;;;6.20;3.70;;;;;;;12.68;65.77;99665.76;24506;1339;3049095;-70
2022/10/09 02:21:45;;;;;;;8.20;4.20;;;;;;;12.63;65.84;99665.44;24518;1331;3029859;-65
2022/10/09 02:24:17;;;;;;;8.70;4.20;;;;;;;12.55;65.84;99664.48;24513;1331;3025906;-67
2022/10/09 02:26:46;;;;;;;6.80;4.10;;;;;;;12.50;66.11;99665.41;24454;1342;3049374;-68
2022/10/09 02:29:15;;;;;;;8.60;4.10;;;;;;;12.46;66.02;99661.60;24481;1334;3025979;-67
2022/10/09 02:31:45;;;;;;;6.30;4.10;;;;;;;12.41;66.08;99655.23;24449;1341;3053005;-69
2022/10/09 02:34:16;;;;;;;6.60;4.10;;;;;;;12.37;66.39;99658.64;24436;1337;3028264;-69
2022/10/09 02:36:45;;;;;;;8.40;4.60;;;;;;;12.34;66.52;99656.05;24527;1332;3026297;-67
2022/10/09 02:39:15;;;;;;;8.10;4.40;;;;;;;12.32;66.49;99653.35;24505;1336;3028026;-64
2022/10/09 02:41:44;;;;;;;6.80;3.90;;;;;;;12.26;66.60;99652.02;24538;1332;3027021;-65
2022/10/09 02:44:13;;;;;;;6.10;3.80;;;;;;;12.23;66.63;99655.55;24531;1332;3025362;-70
2022/10/09 02:46:42;;;;;;;8.20;4.20;;;;;;;12.19;66.78;99655.95;24493;1325;3048663;-65
2022/10/09 02:49:11;;;;;;;7.30;3.40;;;;;;;12.16;66.79;99658.08;24543;1327;3026922;-67
2022/10/09 02:51:40;;;;;;;8.20;3.80;;;;;;;12.15;66.83;99651.15;24515;1339;3068336;-65
2022/10/09 02:54:09;;;;;;;6.90;3.50;;;;;;;12.12;66.70;99648.52;24471;1334;3026731;-67
2022/10/09 02:56:38;;;;;;;5.20;3.40;;;;;;;12.08;67.18;99647.89;24435;1335;3048470;-63
2022/10/09 02:59:07;;;;;;;7.50;3.80;;;;;;;11.99;67.62;99650.91;24507;1324;3028833;-65
2022/10/09 03:01:37;;;;;;;6.40;3.70;;;;;;;11.91;68.17;99652.79;24511;1327;3052510;-68
2022/10/09 03:04:07;;;;;;;7.40;4.00;;;;;;;11.87;68.07;99649.70;24480;1333;3026368;-69
2022/10/09 03:06:36;;;;;;;8.10;4.30;;;;;;;11.83;68.27;99650.32;24457;1325;3029410;-66
2022/10/09 03:09:07;;;;;;;7.20;3.90;;;;;;;11.80;68.24;99649.80;24498;1334;3028274;-65
2022/10/09 03:11:36;;;;;;;8.40;4.20;;;;;;;11.82;68.06;99652.28;24586;1329;3028771;-69
2022/10/09 03:14:05;;;;;;;6.40;3.90;;;;;;;11.81;68.11;99651.65;24456;1330;3068215;-67
2022/10/09 03:16:34;;;;;;;7.60;4.10;;;;;;;11.78;68.20;99650.42;24491;1334;3028083;-66
2022/10/09 03:19:05;;;;;;;10.30;4.40;;;;;;;11.72;68.52;99648.90;24506;1332;3027915;-67
2022/10/09 03:21:34;;;;;;;7.30;4.30;;;;;;;11.74;68.15;99650.51;24561;1333;3028469;-66
2022/10/09 03:24:03;;;;;;;6.70;4.10;;;;;;;11.76;68.10;99646.54;24473;1329;3027556;-66
2022/10/09 03:26:34;;;;;;;7.20;4.20;;;;;;;11.76;68.02;99643.91;24536;1333;3057235;-65
2022/10/09 03:29:03;;;;;;;7.60;4.50;;;;;;;11.76;68.04;99641.81;24496;1337;3026105;-64
2022/10/09 03:31:33;;;;;;;7.90;4.30;;;;;;;11.71;68.22;99639.09;24505;1337;3051237;-65
2022/10/09 03:34:02;;;;;;;8.60;4.40;;;;;;;11.69;68.34;99637.15;24459;1339;3028620;-66
2022/10/09 03:36:31;;;;;;;9.20;4.40;;;;;;;11.65;68.78;99633.02;24472;1334;3068323;-66
2022/10/09 03:39:00;;;;;;;8.20;4.60;;;;;;;11.64;68.75;99632.58;24606;1333;3028882;-64
2022/10/09 03:41:29;;;;;;;5.30;2.60;;;;;;;11.62;68.79;99627.54;24498;1343;3048947;-66
2022/10/09 03:43:58;;;;;;;3.70;2.50;;;;;;;12.21;68.09;99625.26;24450;1324;3028614;-67
2022/10/09 03:46:27;;;;;;;4.20;2.60;;;;;;;12.84;66.71;99621.14;24466;1332;3053755;-64
2022/10/09 03:48:56;;;;;;;6.80;3.90;;;;;;;12.95;65.78;99615.50;24460;1338;3029155;-67
2022/10/09 03:51:25;;;;;;;10.40;4.00;;;;;;;12.81;65.79;99619.24;24515;1325;3029283;-67
2022/10/09 03:53:54;;;;;;;8.70;4.20;;;;;;;12.65;66.20;99617.67;24537;1333;3052393;-63
2022/10/09 03:56:23;;;;;;;8.10;4.30;;;;;;;12.53;66.39;99616.54;24489;1331;3028601;-63
2022/10/09 03:58:52;;;;;;;8.40;4.40;;;;;;;12.36;66.63;99620.08;24477;1337;3051410;-66
2022/10/09 04:01:21;;;;;;;9.80;5.20;;;;;;;12.14;67.27;99619.02;24558;1323;3028347;-68
2022/10/09 04:03:50;;;;;;;7.20;4.40;;;;;;;12.03;67.62;99615.36;24561;1337;3052994;-69
2022/10/09 04:06:22;;;;;;;9.00;5.00;;;;;;;11.99;67.63;99614.77;24469;1339;3027589;-70
2022/10/09 04:08:53;;;;;;;7.00;4.60;;;;;;;11.89;67.88;99614.29;24590;1324;3026999;-68
2022/10/09 04:11:22;;;;;;;8.50;4.70;;;;;;;11.76;68.30;99612.14;24548;1329;3026653;-66
2022/10/09 04:13:51;;;;;;;10.40;5.00;;;;;;;11.68;68.57;99613.88;24499;1329;3049878;-65
2022/10/09 04:16:22;;;;;;;10.20;4.60;;;;;;;11.56;69.05;99609.67;24522;1325;3027665;-64
2022/10/09 04:18:51;;;;;;;8.50;5.10;;;;;;;11.52;69.21;99606.43;24521;1316;3029933;-68
2022/10/09 04:21:20;;;;;;;9.10;4.50;;;;;;;11.50;69.12;99608.85;24546;1339;3051476;-67
2022/10/09 04:23:49;;;;;;;9.50;5.00;;;;;;;11.51;69.32;99605.79;24545;1326;3029801;-68
2022/10/09 04:26:19;;;;;;;9.40;4.70;;;;;;;11.54;69.02;99606.33;24520;1329;3053189;-70
2022/10/09 04:28:48;;;;;;;12.40;5.00;;;;;;;11.54;68.94;99608.98;24532;1331;3026351;-63
2022/10/09 04:31:18;;;;;;;7.80;4.80;;;;;;;11.54;68.94;99603.67;24480;1339;3052216;-67
2022/10/09 04:33:48;;;;;;;6.10;3.90;;;;;;;11.55;68.98;99608.71;24495;1339;3029430;-68
2022/10/09 04:36:17;;;;;;;7.30;4.80;;;;;;;11.57;68.68;99608.75;24527;1331;3026200;-64
2022/10/09 04:38:46;;;;;;;8.50;4.70;;;;;;;11.57;69.25;99614.36;24545;1334;3052841;-69
2022/10/09 04:41:15;;;;;;;6.50;4.00;;;;;;;11.60;68.87;99615.09;24571;1327;3027423;-66
2022/10/09 04:43:44;;;;;;;9.60;2.80;;;;;;;11.66;68.68;99612.58;24551;1331;3055880;-70
2022/10/09 04:46:14;;;;;;;8.60;2.70;;;;;;;12.19;67.90;99614.64;24540;1327;3030145;-69
2022/10/09 04:48:44;;;;;;;5.70;3.20;;;;;;;12.82;66.33;99606.14;24504;1333;3050981;-68
2022/10/09 04:51:13;;;;;;;5.30;3.20;;;;;;;13.01;65.51;99600.48;24553;1346;3028348;-65
2022/10/09 04:53:46;;;;;;;6.50;3.50;;;;;;;12.95;65.34;99603.83;24524;1333;3028927;-66
2022/10/09 04:56:18;;;;;;;5.60;3.90;;;;;;;12.76;65.58;99607.60;24491;1327;3026675;-62
2022/10/09 04:58:47;;;;;;;11.90;4.10;;;;;;;12.60;66.03;99604.81;24521;1333;3057185;-64
2022/10/09 05:01:19;;;;;;;7.70;4.50;;;;;;;12.46;66.54;99600.48;24509;1326;3027624;-67
2022/10/09 05:03:50;;;;;;;8.50;4.60;;;;;;;12.36;66.73;99597.96;24459;1325;3052606;-66
2022/10/09 05:06:20;;;;;;;10.20;4.70;;;;;;;12.30;66.99;99595.06;24457;1333;3026777;-70
2022/10/09 05:08:49;;;;;;;7.70;4.00;;;;;;;12.27;67.10;99592.60;24494;1332;3028069;-70
2022/10/09 05:11:21;;;;;;;7.40;4.40;;;;;;;12.25;67.36;99592.91;24509;1333;3028169;-69
2022/10/09 05:13:54;;;;;;;7.00;4.30;;;;;;;12.20;67.32;99589.86;24564;1335;3050759;-68
2022/10/09 05:16:25;;;;;;;9.50;4.20;;;;;;;12.20;67.46;99593.24;24549;1336;3027675;-68
2022/10/09 05:18:56;;;;;;;7.90;4.40;;;;;;;12.19;67.45;99596.97;24443;1342;3027780;-68
2022/10/09 05:21:26;;;;;;;6.70;4.30;;;;;;;12.22;67.25;99596.77;24467;1328;3029727;-72
2022/10/09 05:23:55;;;;;;;7.50;4.40;;;;;;;12.21;67.35;99600.70;24539;1333;3025039;-70
2022/10/09 05:26:24;;;;;;;8.10;3.80;;;;;;;12.20;67.48;99601.30;24542;1336;3026366;-65
2022/10/09 05:28:53;;;;;;;7.40;4.40;;;;;;;12.20;67.82;99603.61;24504;1323;3069977;-68
2022/10/09 05:31:26;;;;;;;11.40;4.20;;;;;;;12.23;67.59;99600.56;24537;1340;3026102;-69
2022/10/09 05:33:57;;;;;;;;;;;;;;;12.27;67.69;99609.95;24513;1339;3049476;-66
2022/10/09 05:36:26;;;;;;;5.80;3.80;;;;;;;12.30;67.55;99603.80;24509;1319;3027466;-69
2022/10/09 05:38:56;;;;;;;11.20;4.10;;;;;;;12.33;67.49;99607.48;24538;1334;3027166;-68
2022/10/09 05:41:25;;;;;;;7.90;4.70;;;;;;;12.32;67.67;99609.80;24569;1333;3026831;-70
2022/10/09 05:44:07;;;;;;;7.30;4.20;;;;;;;12.33;67.59;99610.61;24499;1326;3027941;-67
2022/10/09 05:46:37;;;;;;;9.20;4.40;;;;;;;12.37;67.39;99609.48;24607;1326;3052895;-69
2022/10/09 05:49:06;;;;;;;7.60;4.30;;;;;;;12.46;66.97;99606.11;24528;1333;3028729;-67
2022/10/09 05:51:37;;;;;;;9.20;4.00;;;;;;;12.50;67.00;99603.39;24564;1333;3027176;-67
2022/10/09 05:54:06;;;;;;;8.50;4.60;;;;;;;12.51;67.05;99602.77;24532;1340;3025551;-70
2022/10/09 05:56:36;;;;;;;6.60;4.10;;;;;;;12.59;66.88;99599.59;24513;1332;3029390;-74
2022/10/09 05:59:06;;;;;;;8.40;4.50;;;;;;;12.66;66.52;99592.10;24605;1337;3026483;-71
2022/10/09 06:01:37;;;;;;;7.00;4.40;;;;;;;12.71;66.54;99589.66;24567;1331;3026890;-73
2022/10/09 06:04:09;;;;;;;6.30;4.10;;;;;;;12.76;66.65;99584.59;24557;1331;3027619;-73
2022/10/09 06:06:39;;;;;;;7.90;4.40;;;;;;;12.85;66.34;99585.16;24609;1337;3028894;-68
2022/10/09 06:09:08;;;;;;;10.70;4.80;;;;;;;12.92;66.17;99581.17;24501;1319;3027454;-66
2022/10/09 06:11:55;;;;;;;6.40;4.10;;;;;;;12.99;65.86;99579.67;24565;1333;3053984;-67
2022/10/09 06:14:24;;;;;;;10.20;4.10;;;;;;;13.06;65.46;99572.90;24553;1329;3026589;-69
2022/10/09 06:16:54;;;;;;;7.60;3.60;;;;;;;13.09;65.61;99576.33;24527;1324;3028529;-65
2022/10/09 06:19:22;;;;;;;7.80;3.80;;;;;;;13.14;65.32;99574.65;24567;1324;3052190;-69
2022/10/09 06:21:53;;;;;;;6.90;3.80;;;;;;;13.21;65.43;99571.31;24577;1333;3026787;-67
2022/10/09 06:24:23;;;;;;;6.80;4.00;;;;;;;13.28;65.28;99565.53;24499;1332;3028352;-64
2022/10/09 06:26:53;;;;;;;6.70;4.20;;;;;;;13.32;64.86;99561.94;24490;1333;3052413;-66
2022/10/09 06:29:23;;;;;;;11.20;3.80;;;;;;;13.28;65.09;99562.56;24521;1327;3026100;-67
2022/10/09 06:31:52;;;;;;;6.90;3.80;;;;;;;13.29;65.07;99563.39;24516;1331;3029341;-70
2022/10/09 06:34:21;;;;;;;8.10;3.90;;;;;;;13.39;64.86;99565.52;24537;1333;3027824;-67
2022/10/09 06:36:50;;;;;;;5.90;3.80;;;;;;;13.48;64.63;99562.38;24447;1334;3047882;-65
2022/10/09 06:39:19;;;;;;;4.70;3.20;;;;;;;13.52;64.67;99558.25;24505;1333;3027933;-71
2022/10/09 06:41:48;;;;;;;7.50;4.10;;;;;;;13.54;64.54;99558.10;24512;1325;3052894;-67
2022/10/09 06:44:42;;;;;;;6.70;3.20;;;;;;;13.64;64.39;99565.36;24538;1332;3050733;-66
2022/10/09 06:47:11;;;;;;;7.10;4.10;;;;;;;13.68;64.35;99569.14;24517;1336;3026253;-69
2022/10/09 06:49:40;;;;;;;10.30;3.90;;;;;;;13.73;64.24;99571.17;24596;1331;3029727;-73
2022/10/09 06:52:09;;;;;;;7.60;4.10;;;;;;;13.79;64.39;99573.08;24493;1341;3049441;-68
2022/10/09 06:54:38;;;;;;;6.60;4.00;;;;;;;13.90;63.82;99563.48;24519;1335;3029143;-70
2022/10/09 06:57:07;;;;;;;8.10;3.90;;;;;;;13.96;63.83;99565.00;24494;1319;3053601;-75
2022/10/09 06:59:37;;;;;;;6.50;3.60;;;;;;;14.10;63.62;99563.77;24520;1333;3028507;-68
2022/10/09 07:02:07;;;;;;;8.50;4.00;;;;;;;14.20;63.26;99566.52;24567;1333;3027269;-68
2022/10/09 07:04:37;;;;;;;7.70;4.30;;;;;;;14.24;63.08;99565.73;23893;1336;4119015;-70
2022/10/09 07:07:07;;;;;;;6.30;3.20;;;;;;;14.29;63.17;99561.13;24528;1333;3054409;-70
2022/10/09 07:09:36;;;;;;;7.00;3.60;;;;;;;14.42;62.88;99555.89;24543;1333;3028184;-67
2022/10/09 07:12:05;;;;;;;7.70;4.00;;;;;;;14.53;62.65;99558.61;24502;1325;3025949;-72
2022/10/09 07:14:35;;;;;;;7.90;3.60;;;;;;;14.64;62.50;99550.94;24495;1339;3051464;-71
2022/10/09 07:17:04;;;;;;;8.10;3.40;;;;;;;14.75;62.35;99547.53;24554;1333;3025369;-70
2022/10/09 07:19:34;;;;;;;6.70;3.60;;;;;;;14.88;62.19;99547.05;24572;1335;3052311;-71
2022/10/09 07:22:04;;;;;;;6.10;3.20;;;;;;;14.96;62.03;99544.10;24532;1326;3029787;-72
2022/10/09 07:24:33;;;;;;;5.90;3.60;;;;;;;15.07;61.64;99544.79;24577;1325;3056489;-72
2022/10/09 07:27:02;;;;;;;8.00;3.60;;;;;;;15.18;61.19;99543.95;24582;1325;3028645;-69
2022/10/09 07:29:31;;;;;;;6.40;3.40;;;;;;;15.33;61.05;99546.90;24505;1326;3029614;-66
2022/10/09 07:32:00;;;;;;;5.40;3.50;;;;;;;15.41;60.76;99540.23;24516;1328;3056708;-67
2022/10/09 07:34:30;;;;;;;9.00;3.70;;;;;;;15.46;60.59;99540.36;24524;1333;3027013;-69
2022/10/09 07:36:59;;;;;;;6.20;3.20;;;;;;;15.53;60.50;99541.89;24493;1325;3029814;-68
2022/10/09 07:39:28;;;;;;;6.50;3.50;;;;;;;15.69;60.41;99542.91;24548;1333;3026695;-72
2022/10/09 07:41:58;;;;;;;5.90;3.10;;;;;;;15.83;60.05;99536.89;24566;1325;3026909;-74
2022/10/09 07:44:27;;;;;;;7.10;3.70;;;;;;;15.94;59.71;99537.27;24576;1328;3054672;-70
2022/10/09 07:46:56;;;;;;;6.00;3.30;;;;;;;16.00;59.60;99534.30;24529;1336;3029496;-68
2022/10/09 07:49:25;;;;;;;9.90;3.40;;;;;;;16.02;59.49;99533.40;24545;1325;3026425;-70
2022/10/09 07:51:54;;;;;;;6.30;3.60;;;;;;;16.12;59.66;99529.13;24523;1333;3053830;-69
2022/10/09 07:54:23;;;;;;;8.90;3.50;;;;;;;16.23;59.53;99530.81;24515;1332;3026107;-72
2022/10/09 07:56:53;;;;;;;7.30;3.40;;;;;;;16.28;59.37;99530.77;24556;1326;3052742;-71
2022/10/09 07:59:22;;;;;;;6.40;3.50;;;;;;;16.34;58.80;99529.71;24568;1333;3026578;-70
2022/10/09 08:01:51;;;;;;;6.30;3.40;;;;;;;16.38;58.71;99529.92;24546;1339;3056442;-70
2022/10/09 08:04:20;;;;;;;7.50;3.70;;;;;;;16.46;58.67;99526.58;24552;1333;3025965;-72
2022/10/09 08:06:50;;;;;;;7.30;3.30;;;;;;;16.48;58.83;99537.20;24548;1338;3050309;-72
2022/10/09 08:09:18;;;;;;;7.10;3.50;;;;;;;16.55;58.76;99535.77;24520;1336;3027451;-69
2022/10/09 08:11:47;;;;;;;8.70;3.40;;;;;;;16.61;58.39;99535.02;24510;1319;3068048;-72
2022/10/09 08:14:19;;;;;;;8.30;3.70;;;;;;;16.67;58.28;99531.38;24526;1341;3027655;-67
2022/10/09 08:16:48;;;;;;;7.80;3.70;;;;;;;16.68;58.35;99530.09;24555;1340;3027080;-72
2022/10/09 08:19:19;;;;;;;6.90;3.50;;;;;;;16.79;58.45;99531.79;24531;1336;3068600;-70
2022/10/09 08:21:48;;;;;;;6.60;3.30;;;;;;;16.84;58.23;99530.33;24540;1334;3026733;-67
2022/10/09 08:24:17;;;;;;;7.50;4.00;;;;;;;16.87;57.97;99528.83;24542;1326;3027114;-70
2022/10/09 08:26:46;;;;;;;6.20;3.40;;;;;;;16.95;58.15;99524.07;24538;1333;3068664;-69
2022/10/09 08:29:19;;;;;;;6.30;3.30;;;;;;;17.05;57.89;99519.84;24543;1318;3029521;-71
2022/10/09 08:32:13;;;;;;;6.60;3.40;;;;;;;17.14;57.74;99520.15;24523;1326;3050785;-68
2022/10/09 08:34:43;;;;;;;5.20;3.20;;;;;;;17.19;57.34;99521.52;24530;1325;3028177;-68
2022/10/09 08:37:11;;;;;;;6.60;3.40;;;;;;;17.27;57.29;99522.05;24530;1339;3027299;-71
2022/10/09 08:39:40;;;;;;;6.00;3.50;;;;;;;17.39;57.30;99526.10;24582;1334;3048492;-67
2022/10/09 08:42:21;;;;;;;8.30;3.60;;;;;;;17.46;57.08;99526.73;24504;1332;3028259;-70
2022/10/09 08:44:50;;;;;;;5.50;3.50;;;;;;;17.59;56.90;99522.17;24584;1336;3053405;-68
2022/10/09 08:47:27;;;;;;;7.70;3.40;;;;;;;17.69;56.74;99523.23;24526;1327;3026901;-66
2022/10/09 08:50:04;;;;;;;7.90;3.70;;;;;;;17.68;56.40;99514.48;24595;1325;3052054;-73
2022/10/09 08:52:47;;;;;;;7.00;3.50;;;;;;;17.84;56.43;99508.50;24557;1333;3053259;-70
2022/10/09 08:55:24;;;;;;;6.80;3.70;;;;;;;17.99;56.13;99503.63;24547;1333;3051323;-70
2022/10/09 08:57:55;;;;;;;6.50;3.10;;;;;;;18.14;55.64;99503.70;24510;1333;3069456;-69
2022/10/09 09:00:26;;;;;;;9.00;3.80;;;;;;;18.19;55.58;99496.67;24564;1333;3027218;-72
2022/10/09 09:03:30;;;;;;;7.10;3.30;;;;;;;18.16;55.31;99494.41;24548;1332;3026117;-71
2022/10/09 09:06:05;;;;;;;5.40;2.80;;;;;;;18.27;55.68;99484.41;24546;1333;3053891;-66
2022/10/09 09:08:47;;;;;;;6.80;3.60;;;;;;;18.41;54.79;99487.87;24584;1325;3053726;-69
2022/10/09 09:11:21;;;;;;;5.30;2.90;;;;;;;18.54;54.75;99486.64;24577;1340;3051779;-71
2022/10/09 09:14:16;;;;;;;7.90;3.30;;;;;;;18.64;54.45;99483.62;24643;1326;3052448;-72
2022/10/09 09:16:59;;;;;;;5.30;2.90;;;;;;;18.73;54.03;99480.78;24570;1333;3049501;-69
2022/10/09 09:20:05;;;;;;;8.90;3.90;;;;;;;18.78;54.13;99476.42;24639;1330;3068816;-69
2022/10/09 09:22:34;;;;;;;9.50;3.90;;;;;;;18.80;54.42;99480.81;24570;1323;3050557;-70
2022/10/09 09:25:19;;;;;;;5.20;3.30;;;;;;;18.92;54.00;99479.77;24613;1334;3026155;-70
2022/10/09 09:27:50;;;;;;;8.90;3.20;;;;;;;19.04;53.72;99481.66;24578;1333;3069354;-65
2022/10/09 09:30:35;;;;;;;4.70;3.00;;;;;;;19.20;53.59;99480.17;24581;1333;3026682;-70
2022/10/09 09:33:07;;;;;;;4.90;2.90;;;;;;;19.32;52.81;99478.23;24545;1326;3057639;-69
2022/10/09 09:35:47;;;;;;;8.30;3.30;;;;;;;19.39;52.95;99477.53;24545;1326;3028323;-69
2022/10/09 09:38:16;;;;;;;6.30;3.10;;;;;;;19.47;53.12;99475.98;24589;1329;3053782;-71
2022/10/09 09:40:45;;;;;;;8.20;3.00;;;;;;;19.52;52.77;99472.77;24520;1326;3026143;-70
2022/10/09 09:43:20;;;;;;;9.50;3.40;;;;;;;19.55;52.82;99469.12;24536;1322;3053196;-67
2022/10/09 09:45:56;;;;;;;7.80;3.00;;;;;;;19.59;52.50;99468.85;24521;1343;3052796;-72
2022/10/09 09:48:37;;;;;;;7.90;2.90;;;;;;;19.64;52.56;99462.94;24552;1319;3052587;-69
2022/10/09 09:51:11;;;;;;;11.60;3.20;;;;;;;19.73;52.41;99464.66;24571;1326;3054423;-66
2022/10/09 09:54:03;;;;;;;9.70;2.90;;;;;;;19.71;52.49;99457.91;24546;1334;3050953;-68
2022/10/09 09:56:38;;;;;;;5.40;2.80;;;;;;;19.72;52.50;99454.52;24518;1335;3069356;-69
2022/10/09 09:59:24;;;;;;;4.70;2.90;;;;;;;19.72;52.10;99454.48;24523;1341;3050524;-71
2022/10/09 10:02:10;;;;;;;5.80;2.80;;;;;;;19.78;52.43;99452.40;24531;1333;3056753;-68
2022/10/09 10:05:00;;;;;;;9.20;3.30;;;;;;;19.80;52.17;99449.23;24536;1333;3054167;-74
2022/10/09 10:07:32;;;;;;;6.30;3.20;;;;;;;19.73;52.29;99451.45;24538;1333;3054071;-69
2022/10/09 10:10:25;;;;;;;4.70;2.40;;;;;;;19.69;52.76;99454.77;24571;1327;3028390;-69
2022/10/09 10:12:58;;;;;;;6.20;2.70;;;;;;;19.70;52.63;99452.13;24573;1312;3052853;-69
2022/10/09 10:15:29;;;;;;;5.30;3.00;;;;;;;19.65;52.76;99449.75;24480;1338;3029065;-67
2022/10/09 10:18:03;;;;;;;7.80;3.40;;;;;;;19.56;53.09;99444.08;24542;1332;3027550;-71
2022/10/09 10:20:48;;;;;;;6.30;3.00;;;;;;;19.46;53.48;99435.85;24524;1336;3050825;-71
2022/10/09 10:23:41;;;;;;;4.50;3.00;;;;;;;19.43;53.60;99431.55;24498;1333;3056906;-71
2022/10/09 10:26:35;;;;;;;6.50;2.50;;;;;;;19.45;53.49;99430.67;24510;1328;3053859;-69
2022/10/09 10:29:12;;;;;;;12.70;3.00;;;;;;;19.45;53.52;99427.08;24520;1333;3054098;-74
2022/10/09 10:31:47;;;;;;;8.50;3.20;;;;;;;19.44;53.48;99421.81;24513;1336;3051677;-72
2022/10/09 10:34:38;;;;;;;9.70;3.50;;;;;;;19.40;53.66;99419.60;24570;1325;3026274;-72
2022/10/09 10:37:13;;;;;;;6.00;2.80;;;;;;;19.37;53.96;99416.68;24532;1325;3049513;-70
2022/10/09 10:39:54;;;;;;;5.50;3.00;;;;;;;19.35;53.97;99411.66;24545;1326;3069677;-70
2022/10/09 10:42:33;;;;;;;8.50;2.80;;;;;;;19.35;54.12;99409.77;24572;1334;3050016;-67
2022/10/09 10:45:13;;;;;;;6.20;2.80;;;;;;;19.40;53.79;99407.48;24510;1333;3056473;-72
2022/10/09 10:47:47;;;;;;;6.40;3.10;;;;;;;19.35;54.27;99401.80;24568;1333;3053856;-72
2022/10/09 10:50:16;;;;;;;8.20;3.70;;;;;;;19.33;54.38;99395.95;24545;1343;3052373;-70
2022/10/09 10:53:02;;;;;;;7.00;2.80;;;;;;;19.40;54.08;99387.27;24537;1325;3026421;-68
2022/10/09 10:55:55;;;;;;;9.00;3.40;;;;;;;19.45;54.11;99384.48;24548;1325;3053349;-68
2022/10/09 10:58:28;;;;;;;5.10;3.10;;;;;;;19.40;54.19;99374.95;24575;1326;3055392;-70
2022/10/09 11:01:19;;;;;;;7.40;3.40;;;;;;;19.31;54.48;99379.46;24511;1325;3027070;-69
2022/10/09 11:04:03;;;;;;;6.20;3.00;;;;;;;19.27;54.72;99376.66;24618;1326;3052608;-67
2022/10/09 11:06:43;;;;;;;7.00;2.80;;;;;;;19.25;54.75;99382.52;24574;1333;3050615;-70
2022/10/09 11:09:31;;;;;;;5.00;2.60;;;;;;;19.23;54.84;99376.62;24545;1326;3070420;-69
2022/10/09 11:12:34;;;;;;;6.50;3.10;;;;;;;19.22;54.92;99376.21;24629;1326;3050522;-68
2022/10/09 11:15:26;;;;;;;5.60;3.00;;;;;;;19.20;55.21;99373.39;24565;1326;3056423;-71
2022/10/09 11:18:01;;;;;;;7.60;3.10;;;;;;;19.21;55.42;99373.46;24551;1325;3053034;-71
2022/10/09 11:20:43;;;;;;;6.70;3.20;;;;;;;19.20;55.75;99372.39;24613;1339;3053787;-66
2022/10/09 11:23:32;;;;;;;4.10;2.50;;;;;;;19.24;55.55;99372.70;24595;1319;3052860;-69
2022/10/09 11:26:12;;;;;;;7.00;3.10;;;;;;;19.27;55.44;99370.20;24561;1332;3052469;-72
2022/10/09 11:29:08;;;;;;;6.40;2.90;;;;;;;19.29;55.60;99369.48;24509;1334;3050672;-69
2022/10/09 11:31:41;;;;;;;5.90;2.50;;;;;;;19.32;55.84;99367.06;24523;1338;3070230;-73
2022/10/09 11:34:17;;;;;;;8.00;3.00;;;;;;;19.34;55.62;99368.81;24598;1333;3026920;-70
2022/10/09 11:36:46;;;;;;;7.70;3.00;;;;;;;19.37;55.56;99370.46;24547;1333;3056574;-69
2022/10/09 11:39:21;;;;;;;7.30;2.80;;;;;;;19.39;55.40;99370.31;24596;1325;3026204;-70
2022/10/09 11:41:52;;;;;;;6.80;2.90;;;;;;;19.41;55.48;99367.24;24582;1333;3054039;-68
2022/10/09 11:44:42;;;;;;;6.50;2.90;;;;;;;19.42;55.48;99366.80;24557;1332;3027410;-73